sensor_id;sensor_type;location;lat;lon;timestamp;P1;durP1;ratioP1;P2;durP2;ratioP2
57565;SDS011;63999;43.882;-0.310;2023-01-08T00:02:04;7.53;;;4.63;;
57565;SDS011;63999;43.882;-0.310;2023-01-08T00:04:32;5.90;;;4.30;;
57565;SDS011;63999;43.882;-0.310;2023-01-08T00:07:01;7.00;;;4.22;;
57565;SDS011;63999;43.882;-0.310;2023-01-08T00:09:29;5.95;;;4.53;;
57565;SDS011;63999;43.882;-0.310;2023-01-08T00:11:58;6.95;;;4.47;;
57565;SDS011;63999;43.882;-0.310;2023-01-08T00:14:26;8.80;;;4.95;;
57565;SDS011;63999;43.882;-0.310;2023-01-08T00:16:56;7.15;;;4.65;;
57565;SDS011;63999;43.882;-0.310;2023-01-08T00:19:24;7.38;;;4.55;;
57565;SDS011;63999;43.882;-0.310;2023-01-08T00:21:53;5.93;;;4.40;;
57565;SDS011;63999;43.882;-0.310;2023-01-08T00:24:21;7.80;;;4.60;;
57565;SDS011;63999;43.882;-0.310;2023-01-08T00:26:50;9.82;;;4.82;;
57565;SDS011;63999;43.882;-0.310;2023-01-08T00:29:18;9.73;;;4.78;;
57565;SDS011;63999;43.882;-0.310;2023-01-08T00:31:46;7.13;;;4.50;;
57565;SDS011;63999;43.882;-0.310;2023-01-08T00:34:14;6.57;;;4.53;;
57565;SDS011;63999;43.882;-0.310;2023-01-08T00:36:43;6.43;;;4.38;;
57565;SDS011;63999;43.882;-0.310;2023-01-08T00:39:11;6.45;;;4.70;;
57565;SDS011;63999;43.882;-0.310;2023-01-08T00:41:39;5.72;;;4.50;;
57565;SDS011;63999;43.882;-0.310;2023-01-08T00:44:10;7.03;;;4.20;;
57565;SDS011;63999;43.882;-0.310;2023-01-08T00:46:39;7.47;;;4.38;;
57565;SDS011;63999;43.882;-0.310;2023-01-08T00:49:07;6.45;;;4.13;;
57565;SDS011;63999;43.882;-0.310;2023-01-08T00:51:35;10.05;;;3.95;;
57565;SDS011;63999;43.882;-0.310;2023-01-08T00:54:04;7.15;;;4.15;;
57565;SDS011;63999;43.882;-0.310;2023-01-08T00:56:32;4.40;;;3.50;;
57565;SDS011;63999;43.882;-0.310;2023-01-08T00:59:01;5.47;;;3.60;;
57565;SDS011;63999;43.882;-0.310;2023-01-08T01:01:30;4.90;;;3.83;;
57565;SDS011;63999;43.882;-0.310;2023-01-08T01:03:58;7.85;;;3.78;;
57565;SDS011;63999;43.882;-0.310;2023-01-08T01:06:26;7.07;;;3.63;;
57565;SDS011;63999;43.882;-0.310;2023-01-08T01:08:55;6.88;;;3.78;;
57565;SDS011;63999;43.882;-0.310;2023-01-08T01:11:24;7.70;;;4.10;;
57565;SDS011;63999;43.882;-0.310;2023-01-08T01:13:54;6.15;;;3.50;;
57565;SDS011;63999;43.882;-0.310;2023-01-08T01:16:22;6.65;;;3.72;;
57565;SDS011;63999;43.882;-0.310;2023-01-08T01:18:50;7.40;;;3.95;;
57565;SDS011;63999;43.882;-0.310;2023-01-08T01:21:29;5.97;;;3.67;;
57565;SDS011;63999;43.882;-0.310;2023-01-08T01:24:02;6.72;;;4.28;;
57565;SDS011;63999;43.882;-0.310;2023-01-08T01:26:32;6.40;;;4.25;;
57565;SDS011;63999;43.882;-0.310;2023-01-08T01:29:00;6.75;;;4.53;;
57565;SDS011;63999;43.882;-0.310;2023-01-08T01:31:29;6.35;;;4.90;;
57565;SDS011;63999;43.882;-0.310;2023-01-08T01:33:58;7.80;;;4.80;;
57565;SDS011;63999;43.882;-0.310;2023-01-08T01:36:27;8.32;;;5.07;;
57565;SDS011;63999;43.882;-0.310;2023-01-08T01:38:55;9.38;;;5.80;;
57565;SDS011;63999;43.882;-0.310;2023-01-08T01:41:26;8.85;;;5.53;;
57565;SDS011;63999;43.882;-0.310;2023-01-08T01:43:59;8.98;;;5.63;;
57565;SDS011;63999;43.882;-0.310;2023-01-08T01:46:48;9.10;;;6.03;;
57565;SDS011;63999;43.882;-0.310;2023-01-08T01:49:20;7.65;;;5.90;;
57565;SDS011;63999;43.882;-0.310;2023-01-08T01:51:54;10.25;;;5.68;;
57565;SDS011;63999;43.882;-0.310;2023-01-08T01:54:27;6.82;;;5.40;;
57565;SDS011;63999;43.882;-0.310;2023-01-08T01:56:58;8.88;;;5.68;;
57565;SDS011;63999;43.882;-0.310;2023-01-08T01:59:26;11.48;;;5.90;;
57565;SDS011;63999;43.882;-0.310;2023-01-08T02:01:55;9.15;;;5.47;;
57565;SDS011;63999;43.882;-0.310;2023-01-08T02:04:23;9.98;;;5.85;;
57565;SDS011;63999;43.882;-0.310;2023-01-08T02:06:55;9.23;;;5.80;;
57565;SDS011;63999;43.882;-0.310;2023-01-08T02:09:53;9.73;;;6.32;;
57565;SDS011;63999;43.882;-0.310;2023-01-08T02:12:46;10.15;;;5.93;;
57565;SDS011;63999;43.882;-0.310;2023-01-08T02:21:15;9.40;;;5.68;;
57565;SDS011;63999;43.882;-0.310;2023-01-08T02:24:09;8.90;;;5.47;;
57565;SDS011;63999;43.882;-0.310;2023-01-08T02:26:58;8.45;;;5.63;;
57565;SDS011;63999;43.882;-0.310;2023-01-08T02:29:29;9.38;;;6.03;;
57565;SDS011;63999;43.882;-0.310;2023-01-08T02:31:59;8.68;;;5.43;;
57565;SDS011;63999;43.882;-0.310;2023-01-08T02:34:27;7.80;;;5.22;;
57565;SDS011;63999;43.882;-0.310;2023-01-08T02:36:57;7.63;;;5.32;;
57565;SDS011;63999;43.882;-0.310;2023-01-08T02:45:59;8.23;;;5.10;;
57565;SDS011;63999;43.882;-0.310;2023-01-08T02:48:14;7.22;;;4.80;;
57565;SDS011;63999;43.882;-0.310;2023-01-08T02:53:27;8.75;;;5.25;;
57565;SDS011;63999;43.882;-0.310;2023-01-08T02:56:00;7.97;;;4.97;;
57565;SDS011;63999;43.882;-0.310;2023-01-08T02:58:49;9.20;;;5.75;;
57565;SDS011;63999;43.882;-0.310;2023-01-08T03:01:20;7.38;;;4.65;;
57565;SDS011;63999;43.882;-0.310;2023-01-08T03:03:53;9.15;;;5.13;;
57565;SDS011;63999;43.882;-0.310;2023-01-08T03:06:26;7.43;;;4.57;;
57565;SDS011;63999;43.882;-0.310;2023-01-08T03:08:54;7.43;;;4.50;;
57565;SDS011;63999;43.882;-0.310;2023-01-08T03:11:23;7.13;;;4.82;;
57565;SDS011;63999;43.882;-0.310;2023-01-08T03:16:35;8.75;;;4.97;;
57565;SDS011;63999;43.882;-0.310;2023-01-08T03:21:56;8.27;;;4.93;;
57565;SDS011;63999;43.882;-0.310;2023-01-08T03:24:27;7.18;;;4.15;;
57565;SDS011;63999;43.882;-0.310;2023-01-08T03:27:00;6.20;;;4.30;;
57565;SDS011;63999;43.882;-0.310;2023-01-08T03:29:30;6.72;;;4.45;;
57565;SDS011;63999;43.882;-0.310;2023-01-08T03:32:03;7.00;;;4.65;;
57565;SDS011;63999;43.882;-0.310;2023-01-08T03:34:35;7.85;;;4.82;;
57565;SDS011;63999;43.882;-0.310;2023-01-08T03:37:06;6.53;;;4.45;;
57565;SDS011;63999;43.882;-0.310;2023-01-08T03:39:41;7.28;;;4.55;;
57565;SDS011;63999;43.882;-0.310;2023-01-08T03:42:13;7.22;;;4.60;;
57565;SDS011;63999;43.882;-0.310;2023-01-08T03:44:45;6.75;;;4.75;;
57565;SDS011;63999;43.882;-0.310;2023-01-08T03:47:13;8.70;;;4.60;;
57565;SDS011;63999;43.882;-0.310;2023-01-08T03:49:43;6.78;;;4.35;;
57565;SDS011;63999;43.882;-0.310;2023-01-08T03:52:20;10.57;;;5.03;;
57565;SDS011;63999;43.882;-0.310;2023-01-08T03:54:50;8.65;;;4.72;;
57565;SDS011;63999;43.882;-0.310;2023-01-08T03:57:18;7.35;;;4.60;;
57565;SDS011;63999;43.882;-0.310;2023-01-08T03:59:47;7.47;;;4.50;;
57565;SDS011;63999;43.882;-0.310;2023-01-08T04:02:16;6.57;;;4.53;;
57565;SDS011;63999;43.882;-0.310;2023-01-08T04:04:43;6.70;;;4.88;;
57565;SDS011;63999;43.882;-0.310;2023-01-08T04:07:12;7.32;;;4.53;;
57565;SDS011;63999;43.882;-0.310;2023-01-08T04:09:41;6.45;;;4.40;;
57565;SDS011;63999;43.882;-0.310;2023-01-08T04:12:09;7.03;;;4.55;;
57565;SDS011;63999;43.882;-0.310;2023-01-08T04:14:38;6.65;;;4.25;;
57565;SDS011;63999;43.882;-0.310;2023-01-08T04:17:08;6.85;;;4.18;;
57565;SDS011;63999;43.882;-0.310;2023-01-08T04:19:37;7.10;;;4.53;;
57565;SDS011;63999;43.882;-0.310;2023-01-08T04:22:05;6.38;;;4.18;;
57565;SDS011;63999;43.882;-0.310;2023-01-08T04:24:35;12.68;;;4.57;;
57565;SDS011;63999;43.882;-0.310;2023-01-08T04:27:04;6.35;;;4.20;;
57565;SDS011;63999;43.882;-0.310;2023-01-08T04:29:33;6.78;;;4.28;;
57565;SDS011;63999;43.882;-0.310;2023-01-08T04:32:01;9.32;;;4.25;;
57565;SDS011;63999;43.882;-0.310;2023-01-08T04:34:49;8.48;;;5.25;;
57565;SDS011;63999;43.882;-0.310;2023-01-08T04:38:02;8.10;;;4.20;;
57565;SDS011;63999;43.882;-0.310;2023-01-08T04:40:33;6.68;;;3.83;;
57565;SDS011;63999;43.882;-0.310;2023-01-08T04:43:01;5.40;;;3.70;;
57565;SDS011;63999;43.882;-0.310;2023-01-08T04:45:30;5.95;;;4.25;;
57565;SDS011;63999;43.882;-0.310;2023-01-08T04:47:58;6.70;;;4.05;;
57565;SDS011;63999;43.882;-0.310;2023-01-08T04:50:26;5.50;;;4.15;;
57565;SDS011;63999;43.882;-0.310;2023-01-08T04:52:57;6.53;;;3.75;;
57565;SDS011;63999;43.882;-0.310;2023-01-08T04:55:25;5.50;;;3.67;;
57565;SDS011;63999;43.882;-0.310;2023-01-08T04:57:53;5.72;;;3.72;;
57565;SDS011;63999;43.882;-0.310;2023-01-08T05:00:22;9.05;;;3.92;;
57565;SDS011;63999;43.882;-0.310;2023-01-08T05:02:50;6.47;;;3.80;;
57565;SDS011;63999;43.882;-0.310;2023-01-08T05:05:19;5.68;;;4.03;;
57565;SDS011;63999;43.882;-0.310;2023-01-08T05:07:47;6.28;;;3.78;;
57565;SDS011;63999;43.882;-0.310;2023-01-08T05:10:16;5.68;;;4.03;;
57565;SDS011;63999;43.882;-0.310;2023-01-08T05:12:44;8.02;;;4.13;;
57565;SDS011;63999;43.882;-0.310;2023-01-08T05:15:27;5.50;;;3.63;;
57565;SDS011;63999;43.882;-0.310;2023-01-08T05:18:21;8.48;;;4.10;;
57565;SDS011;63999;43.882;-0.310;2023-01-08T05:21:22;6.88;;;4.15;;
57565;SDS011;63999;43.882;-0.310;2023-01-08T05:24:15;8.38;;;4.20;;
57565;SDS011;63999;43.882;-0.310;2023-01-08T05:26:43;4.57;;;3.63;;
57565;SDS011;63999;43.882;-0.310;2023-01-08T05:29:12;8.20;;;3.78;;
57565;SDS011;63999;43.882;-0.310;2023-01-08T05:31:41;5.57;;;4.00;;
57565;SDS011;63999;43.882;-0.310;2023-01-08T05:34:09;8.07;;;3.72;;
57565;SDS011;63999;43.882;-0.310;2023-01-08T05:36:38;4.97;;;3.40;;
57565;SDS011;63999;43.882;-0.310;2023-01-08T05:39:08;5.90;;;3.40;;
57565;SDS011;63999;43.882;-0.310;2023-01-08T05:41:36;6.63;;;3.83;;
57565;SDS011;63999;43.882;-0.310;2023-01-08T05:44:04;5.30;;;3.50;;
57565;SDS011;63999;43.882;-0.310;2023-01-08T05:46:41;6.53;;;3.35;;
57565;SDS011;63999;43.882;-0.310;2023-01-08T05:49:31;6.85;;;3.70;;
57565;SDS011;63999;43.882;-0.310;2023-01-08T05:51:59;8.20;;;3.45;;
57565;SDS011;63999;43.882;-0.310;2023-01-08T05:54:27;6.75;;;3.40;;
57565;SDS011;63999;43.882;-0.310;2023-01-08T05:56:56;8.88;;;3.22;;
57565;SDS011;63999;43.882;-0.310;2023-01-08T05:59:24;5.43;;;3.35;;
57565;SDS011;63999;43.882;-0.310;2023-01-08T06:01:53;6.50;;;3.60;;
57565;SDS011;63999;43.882;-0.310;2023-01-08T06:04:21;7.50;;;3.42;;
57565;SDS011;63999;43.882;-0.310;2023-01-08T06:06:49;4.78;;;3.30;;
57565;SDS011;63999;43.882;-0.310;2023-01-08T06:09:17;5.15;;;3.15;;
57565;SDS011;63999;43.882;-0.310;2023-01-08T06:11:46;6.97;;;3.60;;
57565;SDS011;63999;43.882;-0.310;2023-01-08T06:14:15;5.47;;;3.10;;
57565;SDS011;63999;43.882;-0.310;2023-01-08T06:16:43;5.85;;;3.03;;
57565;SDS011;63999;43.882;-0.310;2023-01-08T06:19:12;8.88;;;3.58;;
57565;SDS011;63999;43.882;-0.310;2023-01-08T06:21:40;5.85;;;3.17;;
57565;SDS011;63999;43.882;-0.310;2023-01-08T06:24:08;5.07;;;3.65;;
57565;SDS011;63999;43.882;-0.310;2023-01-08T06:26:37;5.97;;;3.33;;
57565;SDS011;63999;43.882;-0.310;2023-01-08T06:29:08;6.75;;;3.22;;
57565;SDS011;63999;43.882;-0.310;2023-01-08T06:31:38;4.75;;;3.38;;
57565;SDS011;63999;43.882;-0.310;2023-01-08T06:34:06;7.25;;;3.80;;
57565;SDS011;63999;43.882;-0.310;2023-01-08T06:36:35;5.45;;;3.67;;
57565;SDS011;63999;43.882;-0.310;2023-01-08T06:39:06;6.18;;;3.90;;
57565;SDS011;63999;43.882;-0.310;2023-01-08T06:41:34;4.82;;;3.67;;
57565;SDS011;63999;43.882;-0.310;2023-01-08T06:44:02;6.43;;;3.70;;
57565;SDS011;63999;43.882;-0.310;2023-01-08T06:46:31;5.43;;;4.00;;
57565;SDS011;63999;43.882;-0.310;2023-01-08T06:49:05;6.65;;;4.35;;
57565;SDS011;63999;43.882;-0.310;2023-01-08T06:51:34;7.13;;;4.20;;
57565;SDS011;63999;43.882;-0.310;2023-01-08T06:54:02;6.63;;;4.03;;
57565;SDS011;63999;43.882;-0.310;2023-01-08T06:56:31;4.85;;;4.13;;
57565;SDS011;63999;43.882;-0.310;2023-01-08T06:58:59;5.93;;;4.40;;
57565;SDS011;63999;43.882;-0.310;2023-01-08T07:01:28;7.65;;;4.95;;
57565;SDS011;63999;43.882;-0.310;2023-01-08T07:03:56;6.97;;;4.80;;
57565;SDS011;63999;43.882;-0.310;2023-01-08T07:06:25;6.22;;;4.82;;
57565;SDS011;63999;43.882;-0.310;2023-01-08T07:08:53;6.63;;;4.93;;
57565;SDS011;63999;43.882;-0.310;2023-01-08T07:11:22;6.13;;;4.85;;
57565;SDS011;63999;43.882;-0.310;2023-01-08T07:13:51;7.68;;;5.20;;
57565;SDS011;63999;43.882;-0.310;2023-01-08T07:16:21;8.35;;;4.88;;
57565;SDS011;63999;43.882;-0.310;2023-01-08T07:18:49;5.88;;;4.47;;
57565;SDS011;63999;43.882;-0.310;2023-01-08T07:21:17;7.55;;;5.15;;
57565;SDS011;63999;43.882;-0.310;2023-01-08T07:23:48;7.28;;;5.30;;
57565;SDS011;63999;43.882;-0.310;2023-01-08T07:26:18;6.32;;;5.28;;
57565;SDS011;63999;43.882;-0.310;2023-01-08T07:28:49;7.80;;;5.20;;
57565;SDS011;63999;43.882;-0.310;2023-01-08T07:31:17;6.25;;;4.90;;
57565;SDS011;63999;43.882;-0.310;2023-01-08T07:33:46;7.25;;;4.97;;
57565;SDS011;63999;43.882;-0.310;2023-01-08T07:36:16;8.32;;;5.43;;
57565;SDS011;63999;43.882;-0.310;2023-01-08T07:38:50;7.93;;;5.40;;
57565;SDS011;63999;43.882;-0.310;2023-01-08T07:41:18;8.45;;;5.78;;
57565;SDS011;63999;43.882;-0.310;2023-01-08T07:43:46;11.50;;;8.23;;
57565;SDS011;63999;43.882;-0.310;2023-01-08T07:46:15;14.18;;;9.52;;
57565;SDS011;63999;43.882;-0.310;2023-01-08T07:48:43;12.93;;;8.98;;
57565;SDS011;63999;43.882;-0.310;2023-01-08T07:51:12;10.32;;;7.93;;
57565;SDS011;63999;43.882;-0.310;2023-01-08T07:53:41;12.52;;;8.63;;
57565;SDS011;63999;43.882;-0.310;2023-01-08T07:56:12;12.65;;;8.60;;
57565;SDS011;63999;43.882;-0.310;2023-01-08T07:58:48;14.27;;;8.93;;
57565;SDS011;63999;43.882;-0.310;2023-01-08T08:01:17;11.98;;;7.50;;
57565;SDS011;63999;43.882;-0.310;2023-01-08T08:03:45;8.75;;;6.10;;
57565;SDS011;63999;43.882;-0.310;2023-01-08T08:06:14;8.40;;;6.03;;
57565;SDS011;63999;43.882;-0.310;2023-01-08T08:08:42;9.60;;;5.07;;
57565;SDS011;63999;43.882;-0.310;2023-01-08T08:11:10;6.55;;;5.07;;
57565;SDS011;63999;43.882;-0.310;2023-01-08T08:13:39;6.22;;;5.18;;
57565;SDS011;63999;43.882;-0.310;2023-01-08T08:16:10;7.07;;;5.30;;
57565;SDS011;63999;43.882;-0.310;2023-01-08T08:18:38;7.95;;;5.25;;
57565;SDS011;63999;43.882;-0.310;2023-01-08T08:21:06;6.28;;;5.05;;
57565;SDS011;63999;43.882;-0.310;2023-01-08T08:23:50;7.13;;;5.60;;
57565;SDS011;63999;43.882;-0.310;2023-01-08T08:26:19;11.32;;;10.15;;
57565;SDS011;63999;43.882;-0.310;2023-01-08T08:28:51;11.43;;;10.23;;
57565;SDS011;63999;43.882;-0.310;2023-01-08T08:31:28;12.00;;;10.80;;
57565;SDS011;63999;43.882;-0.310;2023-01-08T08:34:15;10.70;;;6.47;;
57565;SDS011;63999;43.882;-0.310;2023-01-08T08:36:54;7.95;;;6.63;;
57565;SDS011;63999;43.882;-0.310;2023-01-08T08:39:25;7.47;;;5.60;;
57565;SDS011;63999;43.882;-0.310;2023-01-08T08:41:55;7.30;;;5.30;;
57565;SDS011;63999;43.882;-0.310;2023-01-08T08:44:26;7.15;;;5.25;;
57565;SDS011;63999;43.882;-0.310;2023-01-08T08:46:55;8.38;;;5.43;;
57565;SDS011;63999;43.882;-0.310;2023-01-08T08:49:23;7.13;;;5.43;;
57565;SDS011;63999;43.882;-0.310;2023-01-08T08:51:52;8.02;;;5.32;;
57565;SDS011;63999;43.882;-0.310;2023-01-08T08:54:21;8.63;;;5.82;;
57565;SDS011;63999;43.882;-0.310;2023-01-08T08:56:52;8.05;;;5.43;;
57565;SDS011;63999;43.882;-0.310;2023-01-08T08:59:22;7.72;;;5.22;;
57565;SDS011;63999;43.882;-0.310;2023-01-08T09:01:52;7.07;;;5.50;;
57565;SDS011;63999;43.882;-0.310;2023-01-08T09:04:30;10.30;;;5.60;;
57565;SDS011;63999;43.882;-0.310;2023-01-08T09:07:01;6.35;;;4.82;;
57565;SDS011;63999;43.882;-0.310;2023-01-08T09:09:39;9.30;;;5.20;;
57565;SDS011;63999;43.882;-0.310;2023-01-08T09:12:14;11.20;;;5.03;;
57565;SDS011;63999;43.882;-0.310;2023-01-08T09:14:52;7.97;;;4.95;;
57565;SDS011;63999;43.882;-0.310;2023-01-08T09:19:53;13.18;;;10.45;;
57565;SDS011;63999;43.882;-0.310;2023-01-08T09:22:23;10.00;;;6.43;;
57565;SDS011;63999;43.882;-0.310;2023-01-08T09:24:59;10.90;;;7.22;;
57565;SDS011;63999;43.882;-0.310;2023-01-08T09:27:35;10.55;;;5.20;;
57565;SDS011;63999;43.882;-0.310;2023-01-08T09:30:06;8.35;;;5.10;;
57565;SDS011;63999;43.882;-0.310;2023-01-08T09:35:42;6.05;;;4.60;;
57565;SDS011;63999;43.882;-0.310;2023-01-08T09:38:20;6.07;;;4.47;;
57565;SDS011;63999;43.882;-0.310;2023-01-08T09:40:59;7.60;;;5.25;;
57565;SDS011;63999;43.882;-0.310;2023-01-08T09:43:44;7.70;;;4.43;;
57565;SDS011;63999;43.882;-0.310;2023-01-08T09:49:04;8.18;;;5.00;;
57565;SDS011;63999;43.882;-0.310;2023-01-08T09:51:43;8.07;;;4.55;;
57565;SDS011;63999;43.882;-0.310;2023-01-08T09:54:27;6.82;;;4.30;;
57565;SDS011;63999;43.882;-0.310;2023-01-08T09:57:00;7.82;;;4.88;;
57565;SDS011;63999;43.882;-0.310;2023-01-08T09:59:46;5.35;;;4.35;;
57565;SDS011;63999;43.882;-0.310;2023-01-08T10:02:19;6.85;;;4.72;;
57565;SDS011;63999;43.882;-0.310;2023-01-08T10:05:10;6.95;;;4.22;;
57565;SDS011;63999;43.882;-0.310;2023-01-08T10:07:43;6.43;;;4.22;;
57565;SDS011;63999;43.882;-0.310;2023-01-08T10:10:19;5.68;;;4.30;;
57565;SDS011;63999;43.882;-0.310;2023-01-08T10:12:55;7.68;;;4.10;;
57565;SDS011;63999;43.882;-0.310;2023-01-08T10:15:23;6.72;;;4.47;;
57565;SDS011;63999;43.882;-0.310;2023-01-08T10:18:05;5.60;;;4.05;;
57565;SDS011;63999;43.882;-0.310;2023-01-08T10:20:39;9.65;;;5.00;;
57565;SDS011;63999;43.882;-0.310;2023-01-08T10:23:11;6.20;;;4.50;;
57565;SDS011;63999;43.882;-0.310;2023-01-08T10:25:50;8.27;;;4.32;;
57565;SDS011;63999;43.882;-0.310;2023-01-08T10:28:24;7.28;;;5.03;;
57565;SDS011;63999;43.882;-0.310;2023-01-08T10:30:53;7.45;;;4.90;;
57565;SDS011;63999;43.882;-0.310;2023-01-08T10:33:38;7.53;;;4.80;;
57565;SDS011;63999;43.882;-0.310;2023-01-08T10:36:14;8.18;;;4.80;;
57565;SDS011;63999;43.882;-0.310;2023-01-08T10:38:56;6.30;;;4.68;;
57565;SDS011;63999;43.882;-0.310;2023-01-08T10:41:30;7.25;;;4.93;;
57565;SDS011;63999;43.882;-0.310;2023-01-08T10:44:13;7.53;;;4.80;;
57565;SDS011;63999;43.882;-0.310;2023-01-08T10:46:49;8.50;;;4.60;;
57565;SDS011;63999;43.882;-0.310;2023-01-08T10:49:29;7.40;;;4.90;;
57565;SDS011;63999;43.882;-0.310;2023-01-08T10:52:04;7.10;;;4.88;;
57565;SDS011;63999;43.882;-0.310;2023-01-08T10:54:48;6.47;;;4.57;;
57565;SDS011;63999;43.882;-0.310;2023-01-08T10:57:22;7.65;;;4.75;;
57565;SDS011;63999;43.882;-0.310;2023-01-08T10:59:55;7.53;;;4.97;;
57565;SDS011;63999;43.882;-0.310;2023-01-08T11:05:04;6.32;;;4.95;;
57565;SDS011;63999;43.882;-0.310;2023-01-08T11:07:38;9.98;;;5.10;;
57565;SDS011;63999;43.882;-0.310;2023-01-08T11:10:29;8.35;;;4.80;;
57565;SDS011;63999;43.882;-0.310;2023-01-08T11:12:58;7.45;;;4.53;;
57565;SDS011;63999;43.882;-0.310;2023-01-08T11:15:45;6.22;;;4.78;;
57565;SDS011;63999;43.882;-0.310;2023-01-08T11:18:26;7.07;;;5.32;;
57565;SDS011;63999;43.882;-0.310;2023-01-08T11:23:44;8.90;;;5.10;;
57565;SDS011;63999;43.882;-0.310;2023-01-08T11:26:32;8.70;;;6.20;;
57565;SDS011;63999;43.882;-0.310;2023-01-08T11:35:16;6.47;;;4.68;;
57565;SDS011;63999;43.882;-0.310;2023-01-08T11:37:54;5.40;;;4.28;;
57565;SDS011;63999;43.882;-0.310;2023-01-08T11:54:38;6.28;;;3.88;;
57565;SDS011;63999;43.882;-0.310;2023-01-08T11:57:23;5.78;;;3.92;;
57565;SDS011;63999;43.882;-0.310;2023-01-08T12:00:11;4.80;;;3.60;;
57565;SDS011;63999;43.882;-0.310;2023-01-08T12:02:56;4.93;;;3.60;;
57565;SDS011;63999;43.882;-0.310;2023-01-08T12:05:30;5.97;;;4.25;;
57565;SDS011;63999;43.882;-0.310;2023-01-08T12:08:20;5.35;;;3.05;;
57565;SDS011;63999;43.882;-0.310;2023-01-08T12:14:31;3.30;;;2.38;;
57565;SDS011;63999;43.882;-0.310;2023-01-08T12:20:11;6.47;;;2.53;;
57565;SDS011;63999;43.882;-0.310;2023-01-08T12:23:17;4.05;;;2.75;;
57565;SDS011;63999;43.882;-0.310;2023-01-08T12:34:14;3.63;;;2.22;;
57565;SDS011;63999;43.882;-0.310;2023-01-08T12:37:04;3.47;;;2.05;;
57565;SDS011;63999;43.882;-0.310;2023-01-08T12:39:56;3.63;;;2.58;;
57565;SDS011;63999;43.882;-0.310;2023-01-08T12:42:40;4.07;;;2.17;;
57565;SDS011;63999;43.882;-0.310;2023-01-08T12:48:11;3.30;;;2.10;;
57565;SDS011;63999;43.882;-0.310;2023-01-08T12:50:51;4.00;;;2.25;;
57565;SDS011;63999;43.882;-0.310;2023-01-08T12:54:11;2.80;;;2.50;;
57565;SDS011;63999;43.882;-0.310;2023-01-08T12:57:08;4.10;;;2.42;;
57565;SDS011;63999;43.882;-0.310;2023-01-08T13:05:29;4.03;;;2.70;;
57565;SDS011;63999;43.882;-0.310;2023-01-08T13:08:33;4.90;;;2.38;;
57565;SDS011;63999;43.882;-0.310;2023-01-08T13:11:05;4.30;;;2.30;;
57565;SDS011;63999;43.882;-0.310;2023-01-08T13:13:36;4.18;;;2.63;;
57565;SDS011;63999;43.882;-0.310;2023-01-08T13:21:31;3.78;;;2.70;;
57565;SDS011;63999;43.882;-0.310;2023-01-08T13:27:27;3.60;;;2.65;;
57565;SDS011;63999;43.882;-0.310;2023-01-08T13:29:54;4.80;;;3.00;;
57565;SDS011;63999;43.882;-0.310;2023-01-08T13:35:00;6.53;;;3.88;;
57565;SDS011;63999;43.882;-0.310;2023-01-08T13:37:44;4.03;;;3.10;;
57565;SDS011;63999;43.882;-0.310;2023-01-08T13:43:18;5.93;;;2.90;;
57565;SDS011;63999;43.882;-0.310;2023-01-08T13:45:47;5.95;;;3.65;;
57565;SDS011;63999;43.882;-0.310;2023-01-08T13:49:14;5.20;;;3.28;;
57565;SDS011;63999;43.882;-0.310;2023-01-08T13:51:39;3.47;;;2.90;;
57565;SDS011;63999;43.882;-0.310;2023-01-08T13:56:40;4.85;;;2.50;;
57565;SDS011;63999;43.882;-0.310;2023-01-08T13:59:16;3.35;;;2.17;;
57565;SDS011;63999;43.882;-0.310;2023-01-08T14:02:03;3.20;;;1.88;;
57565;SDS011;63999;43.882;-0.310;2023-01-08T14:04:48;3.65;;;2.53;;
57565;SDS011;63999;43.882;-0.310;2023-01-08T14:07:15;3.83;;;2.15;;
57565;SDS011;63999;43.882;-0.310;2023-01-08T14:09:41;3.45;;;2.10;;
57565;SDS011;63999;43.882;-0.310;2023-01-08T14:12:08;3.05;;;2.08;;
57565;SDS011;63999;43.882;-0.310;2023-01-08T14:14:38;2.05;;;1.63;;
57565;SDS011;63999;43.882;-0.310;2023-01-08T14:17:15;4.00;;;2.30;;
57565;SDS011;63999;43.882;-0.310;2023-01-08T14:19:43;4.68;;;2.25;;
57565;SDS011;63999;43.882;-0.310;2023-01-08T14:22:13;2.88;;;2.25;;
57565;SDS011;63999;43.882;-0.310;2023-01-08T14:24:44;4.25;;;2.25;;
57565;SDS011;63999;43.882;-0.310;2023-01-08T14:27:22;11.07;;;6.78;;
57565;SDS011;63999;43.882;-0.310;2023-01-08T14:29:53;10.23;;;5.95;;
57565;SDS011;63999;43.882;-0.310;2023-01-08T14:32:23;6.93;;;4.55;;
57565;SDS011;63999;43.882;-0.310;2023-01-08T14:37:18;14.25;;;9.68;;
57565;SDS011;63999;43.882;-0.310;2023-01-08T14:39:44;2.75;;;1.95;;
57565;SDS011;63999;43.882;-0.310;2023-01-08T14:42:17;2.80;;;2.20;;
57565;SDS011;63999;43.882;-0.310;2023-01-08T14:47:56;4.78;;;3.72;;
57565;SDS011;63999;43.882;-0.310;2023-01-08T14:55:54;4.65;;;3.30;;
57565;SDS011;63999;43.882;-0.310;2023-01-08T14:58:22;5.90;;;4.28;;
57565;SDS011;63999;43.882;-0.310;2023-01-08T15:00:55;11.85;;;8.82;;
57565;SDS011;63999;43.882;-0.310;2023-01-08T15:06:27;7.03;;;5.03;;
57565;SDS011;63999;43.882;-0.310;2023-01-08T15:08:55;8.57;;;4.15;;
57565;SDS011;63999;43.882;-0.310;2023-01-08T15:11:28;6.68;;;3.22;;
57565;SDS011;63999;43.882;-0.310;2023-01-08T15:13:56;2.70;;;1.90;;
57565;SDS011;63999;43.882;-0.310;2023-01-08T15:16:31;3.88;;;3.05;;
57565;SDS011;63999;43.882;-0.310;2023-01-08T15:19:04;3.10;;;2.00;;
57565;SDS011;63999;43.882;-0.310;2023-01-08T15:21:37;4.55;;;2.63;;
57565;SDS011;63999;43.882;-0.310;2023-01-08T15:24:04;2.15;;;1.50;;
57565;SDS011;63999;43.882;-0.310;2023-01-08T15:26:31;4.35;;;2.40;;
57565;SDS011;63999;43.882;-0.310;2023-01-08T15:29:04;3.90;;;2.28;;
57565;SDS011;63999;43.882;-0.310;2023-01-08T15:31:32;4.25;;;2.45;;
57565;SDS011;63999;43.882;-0.310;2023-01-08T15:34:12;3.70;;;2.60;;
57565;SDS011;63999;43.882;-0.310;2023-01-08T15:36:40;4.00;;;2.97;;
57565;SDS011;63999;43.882;-0.310;2023-01-08T15:39:05;5.53;;;2.88;;
57565;SDS011;63999;43.882;-0.310;2023-01-08T15:41:40;3.22;;;2.33;;
57565;SDS011;63999;43.882;-0.310;2023-01-08T15:44:25;3.45;;;2.00;;
57565;SDS011;63999;43.882;-0.310;2023-01-08T15:46:51;3.47;;;2.40;;
57565;SDS011;63999;43.882;-0.310;2023-01-08T15:49:17;2.97;;;2.17;;
57565;SDS011;63999;43.882;-0.310;2023-01-08T15:51:44;3.13;;;2.10;;
57565;SDS011;63999;43.882;-0.310;2023-01-08T15:54:13;3.55;;;2.15;;
57565;SDS011;63999;43.882;-0.310;2023-01-08T15:56:40;3.25;;;1.90;;
57565;SDS011;63999;43.882;-0.310;2023-01-08T15:59:06;3.63;;;1.98;;
57565;SDS011;63999;43.882;-0.310;2023-01-08T16:01:32;3.45;;;1.70;;
57565;SDS011;63999;43.882;-0.310;2023-01-08T16:03:58;4.20;;;2.08;;
57565;SDS011;63999;43.882;-0.310;2023-01-08T16:06:24;4.65;;;1.70;;
57565;SDS011;63999;43.882;-0.310;2023-01-08T16:08:50;2.75;;;1.83;;
57565;SDS011;63999;43.882;-0.310;2023-01-08T16:11:21;4.80;;;1.70;;
57565;SDS011;63999;43.882;-0.310;2023-01-08T16:13:47;2.60;;;1.48;;
57565;SDS011;63999;43.882;-0.310;2023-01-08T16:16:14;2.63;;;1.63;;
57565;SDS011;63999;43.882;-0.310;2023-01-08T16:18:40;3.40;;;1.80;;
57565;SDS011;63999;43.882;-0.310;2023-01-08T16:21:07;3.28;;;1.83;;
57565;SDS011;63999;43.882;-0.310;2023-01-08T16:23:37;3.25;;;2.00;;
57565;SDS011;63999;43.882;-0.310;2023-01-08T16:28:31;3.40;;;1.80;;
57565;SDS011;63999;43.882;-0.310;2023-01-08T16:30:57;3.85;;;1.90;;
57565;SDS011;63999;43.882;-0.310;2023-01-08T16:33:23;4.28;;;1.92;;
57565;SDS011;63999;43.882;-0.310;2023-01-08T16:35:56;3.92;;;1.95;;
57565;SDS011;63999;43.882;-0.310;2023-01-08T16:38:25;4.10;;;1.73;;
57565;SDS011;63999;43.882;-0.310;2023-01-08T16:40:52;6.78;;;2.13;;
57565;SDS011;63999;43.882;-0.310;2023-01-08T16:43:21;4.85;;;2.55;;
57565;SDS011;63999;43.882;-0.310;2023-01-08T16:45:50;3.75;;;2.08;;
57565;SDS011;63999;43.882;-0.310;2023-01-08T16:48:16;5.30;;;2.47;;
57565;SDS011;63999;43.882;-0.310;2023-01-08T16:50:43;3.47;;;2.15;;
57565;SDS011;63999;43.882;-0.310;2023-01-08T16:53:09;5.13;;;2.85;;
57565;SDS011;63999;43.882;-0.310;2023-01-08T16:55:36;6.43;;;2.92;;
57565;SDS011;63999;43.882;-0.310;2023-01-08T16:58:05;4.65;;;2.22;;